Aviation Digital Data Service (ADDS)

Output produced by METARs form (1856 UTC 19 August 2019)
found at http://www.aviationweather.gov/metar/data/
 
METAR text: OAKN 191756Z 22005KT 8000 HZ CLR 27/M06 A2983 RMK AO2A SLP044 WND DATA ESTMD Q1010 PA3384 DA5495 T02661058 10367 20261 51012
Conditions at: OAKN (KANDAHAR INTL AR, AF) observed 1756 UTC 19 August 2019
Temperature: 26.6°C (80°F)
Dewpoint: -5.8°C (22°F) [RH = 11%]
Pressure (altimeter): 29.83 inches Hg (1010.2 mb)
[Sea-level pressure: 1004.4 mb]
Winds: from the SW (220 degrees) at 6 MPH (5 knots; 2.6 m/s)
Visibility: 5 miles ( 8 km)
Ceiling: at least 12,000 feet AGL
Clouds: sky clear below 12,000 feet AGL
Weather: HZ  (haze)

METAR text: OAKN 191659Z 21006KT 9999 CLR 29/M06 A2982 RMK AO2A SLP041 WND DATA ESTMD Q1010 PA3386 DA5746 T02881064
Conditions at: OAKN (KANDAHAR INTL AR, AF) observed 1659 UTC 19 August 2019
Temperature: 28.8°C (84°F)
Dewpoint: -6.4°C (20°F) [RH = 10%]
Pressure (altimeter): 29.82 inches Hg (1009.9 mb)
[Sea-level pressure: 1004.1 mb]
Winds: from the SSW (210 degrees) at 7 MPH (6 knots; 3.1 m/s)
Visibility: 6 or more miles (10+ km)
Ceiling: at least 12,000 feet AGL
Clouds: sky clear below 12,000 feet AGL
Weather: no significant weather observed at this time

METAR text: OAKN 191558Z 24007KT 8000 HZ CLR 28/M01 A2981 RMK AO2A SLP039 WND DATA ESTMD Q1009 PA3398 DA5682 T02801011
Conditions at: OAKN (KANDAHAR INTL AR, AF) observed 1558 UTC 19 August 2019
Temperature: 28.0°C (82°F)
Dewpoint: -1.1°C (30°F) [RH = 15%]
Pressure (altimeter): 29.81 inches Hg (1009.6 mb)
[Sea-level pressure: 1003.9 mb]
Winds: from the WSW (240 degrees) at 8 MPH (7 knots; 3.6 m/s)
Visibility: 5 miles ( 8 km)
Ceiling: at least 12,000 feet AGL
Clouds: sky clear below 12,000 feet AGL
Weather: HZ  (haze)

METAR text: OAKN 191456Z 00000KT 6000 HZ CLR 31/M02 A2979 RMK AO2A SLP032 WND DATA ESTMD Q1009 PA3420 DA6057 T03131018 53008
Conditions at: OAKN (KANDAHAR INTL AR, AF) observed 1456 UTC 19 August 2019
Temperature: 31.3°C (88°F)
Dewpoint: -1.8°C (29°F) [RH = 12%]
Pressure (altimeter): 29.79 inches Hg (1008.9 mb)
[Sea-level pressure: 1003.2 mb]
Winds: calm
Visibility: 4 miles ( 6 km)
Ceiling: at least 12,000 feet AGL
Clouds: sky clear below 12,000 feet AGL
Weather: HZ  (haze)

METAR text: OAKN 191357Z 28006KT 9000 HZ CLR 34/M02 A2976 RMK AO2A SLP023 WND DATA ESTMD Q1008 PA3440 DA6348 T03381018
Conditions at: OAKN (KANDAHAR INTL AR, AF) observed 1357 UTC 19 August 2019
Temperature: 33.8°C (93°F)
Dewpoint: -1.8°C (29°F) [RH = 10%]
Pressure (altimeter): 29.76 inches Hg (1007.9 mb)
[Sea-level pressure: 1002.3 mb]
Winds: from the W (280 degrees) at 7 MPH (6 knots; 3.1 m/s)
Visibility: 6 miles ( 9 km)
Ceiling: at least 12,000 feet AGL
Clouds: sky clear below 12,000 feet AGL
Weather: HZ  (haze)

METAR text: OAKN 191255Z 29008KT 9999 CLR 36/M02 A2976 RMK AO2A SLP022 WND DATA ESTMD Q1008 PA3445 DA6561 T03571018
Conditions at: OAKN (KANDAHAR INTL AR, AF) observed 1255 UTC 19 August 2019
Temperature: 35.7°C (96°F)
Dewpoint: -1.8°C (29°F) [RH =  9%]
Pressure (altimeter): 29.76 inches Hg (1007.9 mb)
[Sea-level pressure: 1002.2 mb]
Winds: from the WNW (290 degrees) at 9 MPH (8 knots; 4.1 m/s)
Visibility: 6 or more miles (10+ km)
Ceiling: at least 12,000 feet AGL
Clouds: sky clear below 12,000 feet AGL
Weather: no significant weather observed at this time

METAR text: OAKN 191156Z 29008KT 9999 CLR 37/M04 A2976 RMK AO2A SLP020 WND DATA ESTMD Q1008 PA3444 DA6632 T03651045 10367 20311 57020
Conditions at: OAKN (KANDAHAR INTL AR, AF) observed 1156 UTC 19 August 2019
Temperature: 36.5°C (98°F)
Dewpoint: -4.5°C (24°F) [RH =  7%]
Pressure (altimeter): 29.76 inches Hg (1007.9 mb)
[Sea-level pressure: 1002.0 mb]
Winds: from the WNW (290 degrees) at 9 MPH (8 knots; 4.1 m/s)
Visibility: 6 or more miles (10+ km)
Ceiling: at least 12,000 feet AGL
Clouds: sky clear below 12,000 feet AGL
Weather: no significant weather observed at this time

METAR text: OAKN 191056Z 30008KT 9999 CLR 37/M04 A2977 RMK AO2A SLP020 WND DATA ESTMD Q1008 PA3432 DA6641 T03661040
Conditions at: OAKN (KANDAHAR INTL AR, AF) observed 1056 UTC 19 August 2019
Temperature: 36.6°C (98°F)
Dewpoint: -4.0°C (25°F) [RH =  7%]
Pressure (altimeter): 29.77 inches Hg (1008.2 mb)
[Sea-level pressure: 1002.0 mb]
Winds: from the WNW (300 degrees) at 9 MPH (8 knots; 4.1 m/s)
Visibility: 6 or more miles (10+ km)
Ceiling: at least 12,000 feet AGL
Clouds: sky clear below 12,000 feet AGL
Weather: no significant weather observed at this time

METAR text: OAKN 190955Z COR 26005G10KT 9999 CLR 36/M04 A2980 RMK AO2A SLP032 WND DATA ESTMD Q1009 PA3409 DA6528 T03581041 COR 1016
Conditions at: OAKN (KANDAHAR INTL AR, AF) observed 0955 UTC 19 August 2019
Temperature: 35.8°C (96°F)
Dewpoint: -4.1°C (25°F) [RH =  8%]
Pressure (altimeter): 29.80 inches Hg (1009.2 mb)
[Sea-level pressure: 1003.2 mb]
Winds: from the W (260 degrees) at 6 MPH (5 knots; 2.6 m/s)
gusting to 12 MPH (10 knots; 5.1 m/s)
Visibility: 6 or more miles (10+ km)
Ceiling: at least 12,000 feet AGL
Clouds: sky clear below 12,000 feet AGL
Weather: no significant weather observed at this time

METAR text: OAKN 190856Z 00000KT 9999 CLR 35/M04 A2983 RMK AO2A SLP042 WND DATA ESTMD Q1010 PA3384 DA6407 T03471042 57014
Conditions at: OAKN (KANDAHAR INTL AR, AF) observed 0856 UTC 19 August 2019
Temperature: 34.7°C (94°F)
Dewpoint: -4.2°C (24°F) [RH =  8%]
Pressure (altimeter): 29.83 inches Hg (1010.2 mb)
[Sea-level pressure: 1004.2 mb]
Winds: calm
Visibility: 6 or more miles (10+ km)
Ceiling: at least 12,000 feet AGL
Clouds: sky clear below 12,000 feet AGL
Weather: no significant weather observed at this time

METAR text: OAKN 190756Z 00000KT 9999 CLR 34/M04 A2985 RMK AO2A SLP049 WND DATA ESTMD Q1011 PA3364 DA6248 T03381036
Conditions at: OAKN (KANDAHAR INTL AR, AF) observed 0756 UTC 19 August 2019
Temperature: 33.8°C (93°F)
Dewpoint: -3.6°C (26°F) [RH =  9%]
Pressure (altimeter): 29.85 inches Hg (1010.9 mb)
[Sea-level pressure: 1004.9 mb]
Winds: calm
Visibility: 6 or more miles (10+ km)
Ceiling: at least 12,000 feet AGL
Clouds: sky clear below 12,000 feet AGL
Weather: no significant weather observed at this time

METAR text: OAKN 190723Z 27003KT 9999 CLR 33/M05 A2985 RMK AO2A SLP051 WND DATA ESTMD Q1011 PA3359 DA6134
Conditions at: OAKN (KANDAHAR INTL AR, AF) observed 0723 UTC 19 August 2019
Temperature: 33.0°C (91°F)
Dewpoint: -5.0°C (23°F) [RH =  8%]
Pressure (altimeter): 29.85 inches Hg (1010.9 mb)
[Sea-level pressure: 1005.1 mb]
Winds: from the W (270 degrees) at 3 MPH (3 knots; 1.5 m/s)
Visibility: 6 or more miles (10+ km)
Ceiling: at least 12,000 feet AGL
Clouds: sky clear below 12,000 feet AGL
Weather: no significant weather observed at this time

METAR text: OAKN 190702Z 23006KT 9999 CLR 32/M05 A2986 RMK AO2A SLP056 WND DATA ESTMD Q1011 PA3352 DA6107 T03241048
Conditions at: OAKN (KANDAHAR INTL AR, AF) observed 0702 UTC 19 August 2019
Temperature: 32.4°C (90°F)
Dewpoint: -4.8°C (23°F) [RH =  9%]
Pressure (altimeter): 29.86 inches Hg (1011.3 mb)
[Sea-level pressure: 1005.6 mb]
Winds: from the SW (230 degrees) at 7 MPH (6 knots; 3.1 m/s)
Visibility: 6 or more miles (10+ km)
Ceiling: at least 12,000 feet AGL
Clouds: sky clear below 12,000 feet AGL
Weather: no significant weather observed at this time

METAR text: OAKN 190656Z COR 23006KT 9999 CLR 32/M05 A2986 RMK AO2A SLP054 WND DATA ESTMD Q1011 PA3352 DA6107 T03241048 COR 0723
Conditions at: OAKN (KANDAHAR INTL AR, AF) observed 0656 UTC 19 August 2019
Temperature: 32.4°C (90°F)
Dewpoint: -4.8°C (23°F) [RH =  9%]
Pressure (altimeter): 29.86 inches Hg (1011.3 mb)
[Sea-level pressure: 1005.4 mb]
Winds: from the SW (230 degrees) at 7 MPH (6 knots; 3.1 m/s)
Visibility: 6 or more miles (10+ km)
Ceiling: at least 12,000 feet AGL
Clouds: sky clear below 12,000 feet AGL
Weather: no significant weather observed at this time

METAR text: OAKN 190559Z 00000KT 9999 CLR 31/M06 A2987 RMK AO2A SLP058 WND DATA ESTMD Q1011 PA3340 DA5951 T03111058 10313 20204 51010
Conditions at: OAKN (KANDAHAR INTL AR, AF) observed 0559 UTC 19 August 2019
Temperature: 31.1°C (88°F)
Dewpoint: -5.8°C (22°F) [RH =  9%]
Pressure (altimeter): 29.87 inches Hg (1011.6 mb)
[Sea-level pressure: 1005.8 mb]
Winds: calm
Visibility: 6 or more miles (10+ km)
Ceiling: at least 12,000 feet AGL
Clouds: sky clear below 12,000 feet AGL
Weather: no significant weather observed at this time

METAR text: OAKN 190459Z 00000KT 9999 CLR 29/M05 A2987 RMK AO2A SLP058 WND DATA ESTMD Q1012 PA3358 DA5717 T02911055 10295 20204
Conditions at: OAKN (KANDAHAR INTL AR, AF) observed 0459 UTC 19 August 2019
Temperature: 29.1°C (84°F)
Dewpoint: -5.5°C (22°F) [RH = 10%]
Pressure (altimeter): 29.87 inches Hg (1011.6 mb)
[Sea-level pressure: 1005.8 mb]
Winds: calm
Visibility: 6 or more miles (10+ km)
Ceiling: at least 12,000 feet AGL
Clouds: sky clear below 12,000 feet AGL
Weather: no significant weather observed at this time

METAR text: OAKN 190355Z 00000KT 9999 CLR 27/M06 A2986 RMK AO2A SLP058 WND DATA ESTMD Q1011 PA3350 DA5522 T02711059
Conditions at: OAKN (KANDAHAR INTL AR, AF) observed 0355 UTC 19 August 2019
Temperature: 27.1°C (81°F)
Dewpoint: -5.9°C (21°F) [RH = 11%]
Pressure (altimeter): 29.86 inches Hg (1011.3 mb)
[Sea-level pressure: 1005.8 mb]
Winds: calm
Visibility: 6 or more miles (10+ km)
Ceiling: at least 12,000 feet AGL
Clouds: sky clear below 12,000 feet AGL
Weather: no significant weather observed at this time

METAR text: OAKN 190255Z COR 00000KT 9999 CLR 24/M06 A2984 RMK AO2A SLP051 WND DATA ESTMD Q1010 PA3371 DA5165 T02381059 52017 COR 0325
Conditions at: OAKN (KANDAHAR INTL AR, AF) observed 0255 UTC 19 August 2019
Temperature: 23.8°C (75°F)
Dewpoint: -5.9°C (21°F) [RH = 13%]
Pressure (altimeter): 29.84 inches Hg (1010.6 mb)
[Sea-level pressure: 1005.1 mb]
Winds: calm
Visibility: 6 or more miles (10+ km)
Ceiling: at least 12,000 feet AGL
Clouds: sky clear below 12,000 feet AGL
Weather: no significant weather observed at this time

METAR text: OAKN 190155Z 00000KT 9999 CLR 21/M06 A2982 RMK AO2A SLPNO WND DATA ESTMD Q1010 PA3386 DA4848 T02071060
Conditions at: OAKN (KANDAHAR INTL AR, AF) observed 0155 UTC 19 August 2019
Temperature: 20.7°C (69°F)
Dewpoint: -6.0°C (21°F) [RH = 16%]
Pressure (altimeter): 29.82 inches Hg (1009.9 mb)
Winds: calm
Visibility: 6 or more miles (10+ km)
Ceiling: at least 12,000 feet AGL
Clouds: sky clear below 12,000 feet AGL
Weather: no significant weather observed at this time

METAR text: OAKN 190056Z 00000KT 9999 CLR 21/M07 A2980 RMK AO2A SLP035 WND DATA ESTMD Q1009 PA3406 DA4885 T02071071
Conditions at: OAKN (KANDAHAR INTL AR, AF) observed 0056 UTC 19 August 2019
Temperature: 20.7°C (69°F)
Dewpoint: -7.1°C (19°F) [RH = 15%]
Pressure (altimeter): 29.80 inches Hg (1009.2 mb)
[Sea-level pressure: 1003.5 mb]
Winds: calm
Visibility: 6 or more miles (10+ km)
Ceiling: at least 12,000 feet AGL
Clouds: sky clear below 12,000 feet AGL
Weather: no significant weather observed at this time

METAR text: OAKN 182355Z 00000KT 9999 CLR 22/M08 A2978 RMK AO2A SLPNO WND DATA ESTMD Q1008 PA3424 DA5018 T02161079 10281 20216 402150214 52002
Conditions at: OAKN (KANDAHAR INTL AR, AF) observed 2355 UTC 18 August 2019
Temperature: 21.6°C (71°F)
Dewpoint: -7.9°C (18°F) [RH = 13%]
Pressure (altimeter): 29.78 inches Hg (1008.5 mb)
Winds: calm
Visibility: 6 or more miles (10+ km)
Ceiling: at least 12,000 feet AGL
Clouds: sky clear below 12,000 feet AGL
Weather: no significant weather observed at this time

METAR text: OAKN 182255Z 00000KT 9999 CLR 24/M08 A2978 RMK AO2A SLP025 WND DATA ESTMD Q1008 PA3431 DA5328 T02441081
Conditions at: OAKN (KANDAHAR INTL AR, AF) observed 2255 UTC 18 August 2019
Temperature: 24.4°C (76°F)
Dewpoint: -8.1°C (17°F) [RH = 11%]
Pressure (altimeter): 29.78 inches Hg (1008.5 mb)
[Sea-level pressure: 1002.5 mb]
Winds: calm
Visibility: 6 or more miles (10+ km)
Ceiling: at least 12,000 feet AGL
Clouds: sky clear below 12,000 feet AGL
Weather: no significant weather observed at this time

METAR text: OAKN 182155Z 00000KT 9999 CLR 23/M07 A2977 RMK AO2A SLP023 WND DATA ESTMD Q1008 PA3432 DA5199 T02331073
Conditions at: OAKN (KANDAHAR INTL AR, AF) observed 2155 UTC 18 August 2019
Temperature: 23.3°C (74°F)
Dewpoint: -7.3°C (19°F) [RH = 12%]
Pressure (altimeter): 29.77 inches Hg (1008.2 mb)
[Sea-level pressure: 1002.3 mb]
Winds: calm
Visibility: 6 or more miles (10+ km)
Ceiling: at least 12,000 feet AGL
Clouds: sky clear below 12,000 feet AGL
Weather: no significant weather observed at this time

METAR text: OAKN 182055Z 00000KT 9999 CLR 25/M07 A2978 RMK AO2A SLP025 WND DATA ESTMD Q1008 PA3430 DA5382 T02491071 57002
Conditions at: OAKN (KANDAHAR INTL AR, AF) observed 2055 UTC 18 August 2019
Temperature: 24.9°C (77°F)
Dewpoint: -7.1°C (19°F) [RH = 11%]
Pressure (altimeter): 29.78 inches Hg (1008.5 mb)
[Sea-level pressure: 1002.5 mb]
Winds: calm
Visibility: 6 or more miles (10+ km)
Ceiling: at least 12,000 feet AGL
Clouds: sky clear below 12,000 feet AGL
Weather: no significant weather observed at this time

METAR text: OAKN 181955Z 00000KT 9999 CLR 26/M07 A2978 RMK AO2A SLP025 WND DATA ESTMD Q1008 PA3426 DA5426 T02551072 403620191
Conditions at: OAKN (KANDAHAR INTL AR, AF) observed 1955 UTC 18 August 2019
Temperature: 25.5°C (78°F)
Dewpoint: -7.2°C (19°F) [RH = 11%]
Pressure (altimeter): 29.78 inches Hg (1008.5 mb)
[Sea-level pressure: 1002.5 mb]
Winds: calm
Visibility: 6 or more miles (10+ km)
Ceiling: at least 12,000 feet AGL
Clouds: sky clear below 12,000 feet AGL
Weather: no significant weather observed at this time

METAR text: OAKN 181755Z 00000KT 9999 CLR 28/M07 A2978 RMK AO2A SLP025 WND DATA ESTMD Q1008 PA3426 DA5710 T02811072 10359 20269 51011
Conditions at: OAKN (KANDAHAR INTL AR, AF) observed 1755 UTC 18 August 2019
Temperature: 28.1°C (83°F)
Dewpoint: -7.2°C (19°F) [RH =  9%]
Pressure (altimeter): 29.78 inches Hg (1008.5 mb)
[Sea-level pressure: 1002.5 mb]
Winds: calm
Visibility: 6 or more miles (10+ km)
Ceiling: at least 12,000 feet AGL
Clouds: sky clear below 12,000 feet AGL
Weather: no significant weather observed at this time

METAR text: OAKN 181655Z 00000KT 9999 CLR 28/M04 A2978 RMK AO2A SLP027 WND DATA ESTMD Q1008 PA3427 DA5730 T02831042
Conditions at: OAKN (KANDAHAR INTL AR, AF) observed 1655 UTC 18 August 2019
Temperature: 28.3°C (83°F)
Dewpoint: -4.2°C (24°F) [RH = 12%]
Pressure (altimeter): 29.78 inches Hg (1008.5 mb)
[Sea-level pressure: 1002.7 mb]
Winds: calm
Visibility: 6 or more miles (10+ km)
Ceiling: at least 12,000 feet AGL
Clouds: sky clear below 12,000 feet AGL
Weather: no significant weather observed at this time

METAR text: OAKN 181557Z 27006KT 8000 HZ CLR 28/M02 A2976 RMK AO2A SLP023 WND DATA ESTMD Q1008 PA3442 DA5687 T02751019
Conditions at: OAKN (KANDAHAR INTL AR, AF) observed 1557 UTC 18 August 2019
Temperature: 27.5°C (82°F)
Dewpoint: -1.9°C (29°F) [RH = 14%]
Pressure (altimeter): 29.76 inches Hg (1007.9 mb)
[Sea-level pressure: 1002.3 mb]
Winds: from the W (270 degrees) at 7 MPH (6 knots; 3.1 m/s)
Visibility: 5 miles ( 8 km)
Ceiling: at least 12,000 feet AGL
Clouds: sky clear below 12,000 feet AGL
Weather: HZ  (haze)

METAR text: OAKN 181459Z VRB03KT 9999 CLR 30/M03 A2974 RMK AO2A SLP018 WND DATA ESTMD Q1007 PA3458 DA5931 T02971026 53005
Conditions at: OAKN (KANDAHAR INTL AR, AF) observed 1459 UTC 18 August 2019
Temperature: 29.7°C (85°F)
Dewpoint: -2.6°C (27°F) [RH = 12%]
Pressure (altimeter): 29.74 inches Hg (1007.2 mb)
[Sea-level pressure: 1001.8 mb]
Winds: variable direction winds at 3 MPH (3 knots; 1.5 m/s)
Visibility: 6 or more miles (10+ km)
Ceiling: at least 12,000 feet AGL
Clouds: sky clear below 12,000 feet AGL
Weather: no significant weather observed at this time

METAR text: OAKN 181358Z VRB03KT 9999 CLR 33/M03 A2973 RMK AO2A SLP013 WND DATA ESTMD Q1007 PA3468 DA6264 T03251027
Conditions at: OAKN (KANDAHAR INTL AR, AF) observed 1358 UTC 18 August 2019
Temperature: 32.5°C (90°F)
Dewpoint: -2.7°C (27°F) [RH = 10%]
Pressure (altimeter): 29.73 inches Hg (1006.9 mb)
[Sea-level pressure: 1001.3 mb]
Winds: variable direction winds at 3 MPH (3 knots; 1.5 m/s)
Visibility: 6 or more miles (10+ km)
Ceiling: at least 12,000 feet AGL
Clouds: sky clear below 12,000 feet AGL
Weather: no significant weather observed at this time

METAR text: OAKN 181259Z 25008KT 9999 CLR 35/M05 A2972 RMK AO2A SLP010 WND DATA ESTMD Q1006 PA3479 DA6520 T03491046
Conditions at: OAKN (KANDAHAR INTL AR, AF) observed 1259 UTC 18 August 2019
Temperature: 34.9°C (95°F)
Dewpoint: -4.6°C (24°F) [RH =  8%]
Pressure (altimeter): 29.72 inches Hg (1006.5 mb)
[Sea-level pressure: 1001.0 mb]
Winds: from the WSW (250 degrees) at 9 MPH (8 knots; 4.1 m/s)
Visibility: 6 or more miles (10+ km)
Ceiling: at least 12,000 feet AGL
Clouds: sky clear below 12,000 feet AGL
Weather: no significant weather observed at this time

METAR text: OAKN 181159Z COR 26011G17KT 9999 CLR 36/M05 A2973 RMK AO2A SLP010 WND DATA ESTMD Q1007 PA3473 DA6616 T03591047 10362 20332 COR 1215
Conditions at: OAKN (KANDAHAR INTL AR, AF) observed 1159 UTC 18 August 2019
Temperature: 35.9°C (97°F)
Dewpoint: -4.7°C (24°F) [RH =  7%]
Pressure (altimeter): 29.73 inches Hg (1006.9 mb)
[Sea-level pressure: 1001.0 mb]
Winds: from the W (260 degrees) at 13 MPH (11 knots; 5.7 m/s)
gusting to 20 MPH (17 knots; 8.7 m/s)
Visibility: 6 or more miles (10+ km)
Ceiling: at least 12,000 feet AGL
Clouds: sky clear below 12,000 feet AGL
Weather: no significant weather observed at this time

METAR text: OAKN 181056Z 26009G16KT 9999 CLR 36/M05 A2974 RMK AO2A SLP013 WND DATA ESTMD Q1007 PA3465 DA6597 T03581049
Conditions at: OAKN (KANDAHAR INTL AR, AF) observed 1056 UTC 18 August 2019
Temperature: 35.8°C (96°F)
Dewpoint: -4.9°C (23°F) [RH =  7%]
Pressure (altimeter): 29.74 inches Hg (1007.2 mb)
[Sea-level pressure: 1001.3 mb]
Winds: from the W (260 degrees) at 10 MPH (9 knots; 4.6 m/s)
gusting to 18 MPH (16 knots; 8.2 m/s)
Visibility: 6 or more miles (10+ km)
Ceiling: at least 12,000 feet AGL
Clouds: sky clear below 12,000 feet AGL
Weather: no significant weather observed at this time

METAR text: OAKN 180956Z 27009G17KT 9999 CLR 35/M04 A2975 RMK AO2A SLP016 WND DATA ESTMD Q1007 PA3453 DA6543 T03541044
Conditions at: OAKN (KANDAHAR INTL AR, AF) observed 0956 UTC 18 August 2019
Temperature: 35.4°C (96°F)
Dewpoint: -4.4°C (24°F) [RH =  8%]
Pressure (altimeter): 29.75 inches Hg (1007.5 mb)
[Sea-level pressure: 1001.6 mb]
Winds: from the W (270 degrees) at 10 MPH (9 knots; 4.6 m/s)
gusting to 20 MPH (17 knots; 8.7 m/s)
Visibility: 6 or more miles (10+ km)
Ceiling: at least 12,000 feet AGL
Clouds: sky clear below 12,000 feet AGL
Weather: no significant weather observed at this time

METAR text: OAKN 180856Z 26009G15KT 9999 CLR 36/M05 A2976 RMK AO2A SLP020 WND DATA ESTMD Q1008 PA3441 DA6552 T03571046 57014
Conditions at: OAKN (KANDAHAR INTL AR, AF) observed 0856 UTC 18 August 2019
Temperature: 35.7°C (96°F)
Dewpoint: -4.6°C (24°F) [RH =  7%]
Pressure (altimeter): 29.76 inches Hg (1007.9 mb)
[Sea-level pressure: 1002.0 mb]
Winds: from the W (260 degrees) at 10 MPH (9 knots; 4.6 m/s)
gusting to 17 MPH (15 knots; 7.7 m/s)
Visibility: 6 or more miles (10+ km)
Ceiling: at least 12,000 feet AGL
Clouds: sky clear below 12,000 feet AGL
Weather: no significant weather observed at this time

METAR text: OAKN 180756Z 28003G11KT 9999 CLR 34/M03 A2978 RMK AO2A SLP027 WND DATA ESTMD Q1008 PA3422 DA6399 T03441034
Conditions at: OAKN (KANDAHAR INTL AR, AF) observed 0756 UTC 18 August 2019
Temperature: 34.4°C (94°F)
Dewpoint: -3.4°C (26°F) [RH =  9%]
Pressure (altimeter): 29.78 inches Hg (1008.5 mb)
[Sea-level pressure: 1002.7 mb]
Winds: from the W (280 degrees) at 3 MPH (3 knots; 1.5 m/s)
gusting to 13 MPH (11 knots; 5.7 m/s)
Visibility: 6 or more miles (10+ km)
Ceiling: at least 12,000 feet AGL
Clouds: sky clear below 12,000 feet AGL
Weather: no significant weather observed at this time

Forecast for: OAKN (KANDAHAR INTL AR, AF)
Text: TAF OAKN 191500Z 1915/2021 VRB06KT 8000 HZ SKC QNH2970INS
Forecast period: 1500 UTC 19 August 2019 to 0700 UTC 20 August 2019
Forecast type: FROM: standard forecast or significant change
Winds: variable direction winds at 7 MPH (6 knots; 3.1 m/s)
Visibility: 5 miles (8 km)
Clouds: clear skies
Weather: HZ  (haze)
Text: BECMG 2007/2008 27012KT 9000 HZ SKC QNH2974INS
Forecast period: 0700 to 1400 UTC 20 August 2019
Forecast type: BECOMING: Conditions expected to become as follows by 0800 UTC 20 August 2019
Winds: from the W (270 degrees) at 14 MPH (12 knots; 6.2 m/s)
Visibility: 6 miles (9 km)
Clouds: clear skies
Weather: HZ  (haze)
Text: BECMG 2014/2015 VRB06KT 8000 HZ SKC QNH2978INS TX38/2011Z TN20/2001Z
Forecast period: 1400 to 2100 UTC 20 August 2019
Forecast type: BECOMING: Conditions expected to become as follows by 1500 UTC 20 August 2019
Winds: variable direction winds at 7 MPH (6 knots; 3.1 m/s)
Visibility: 5 miles (8 km)
Clouds: clear skies
Weather: HZ  (haze)